sensor_id;sensor_type;location;lat;lon;timestamp;P1;durP1;ratioP1;P2;durP2;ratioP2
43297;SDS011;28892;55.640;37.532;2023-03-22T00:02:23;9.85;;;7.55;;
43297;SDS011;28892;55.640;37.532;2023-03-22T00:04:50;12.18;;;8.38;;
43297;SDS011;28892;55.640;37.532;2023-03-22T00:07:17;12.75;;;8.48;;
43297;SDS011;28892;55.640;37.532;2023-03-22T00:09:42;10.45;;;8.13;;
43297;SDS011;28892;55.640;37.532;2023-03-22T00:12:08;11.48;;;7.82;;
43297;SDS011;28892;55.640;37.532;2023-03-22T00:14:34;10.90;;;8.27;;
43297;SDS011;28892;55.640;37.532;2023-03-22T00:17:01;11.40;;;8.05;;
43297;SDS011;28892;55.640;37.532;2023-03-22T00:19:26;13.25;;;8.80;;
43297;SDS011;28892;55.640;37.532;2023-03-22T00:21:58;12.00;;;8.05;;
43297;SDS011;28892;55.640;37.532;2023-03-22T00:24:24;9.95;;;7.80;;
43297;SDS011;28892;55.640;37.532;2023-03-22T00:26:50;11.45;;;8.05;;
43297;SDS011;28892;55.640;37.532;2023-03-22T00:29:17;11.30;;;7.65;;
43297;SDS011;28892;55.640;37.532;2023-03-22T00:31:44;10.48;;;8.27;;
43297;SDS011;28892;55.640;37.532;2023-03-22T00:34:09;13.00;;;8.60;;
43297;SDS011;28892;55.640;37.532;2023-03-22T00:36:38;12.32;;;8.65;;
43297;SDS011;28892;55.640;37.532;2023-03-22T00:39:03;13.00;;;8.85;;
43297;SDS011;28892;55.640;37.532;2023-03-22T00:41:29;12.02;;;8.30;;
43297;SDS011;28892;55.640;37.532;2023-03-22T00:43:55;12.25;;;8.57;;
43297;SDS011;28892;55.640;37.532;2023-03-22T00:46:21;10.68;;;7.53;;
43297;SDS011;28892;55.640;37.532;2023-03-22T00:48:47;11.80;;;8.00;;
43297;SDS011;28892;55.640;37.532;2023-03-22T00:51:15;12.95;;;9.05;;
43297;SDS011;28892;55.640;37.532;2023-03-22T00:53:41;13.57;;;8.55;;
43297;SDS011;28892;55.640;37.532;2023-03-22T00:56:08;11.77;;;7.72;;
43297;SDS011;28892;55.640;37.532;2023-03-22T00:58:43;12.95;;;8.82;;
43297;SDS011;28892;55.640;37.532;2023-03-22T01:01:09;10.50;;;7.40;;
43297;SDS011;28892;55.640;37.532;2023-03-22T01:03:38;12.32;;;7.80;;
43297;SDS011;28892;55.640;37.532;2023-03-22T01:06:05;12.73;;;8.57;;
43297;SDS011;28892;55.640;37.532;2023-03-22T01:08:31;15.05;;;8.70;;
43297;SDS011;28892;55.640;37.532;2023-03-22T01:10:57;15.00;;;9.27;;
43297;SDS011;28892;55.640;37.532;2023-03-22T01:13:24;12.52;;;8.68;;
43297;SDS011;28892;55.640;37.532;2023-03-22T01:15:50;12.45;;;9.43;;
43297;SDS011;28892;55.640;37.532;2023-03-22T01:18:18;12.23;;;7.90;;
43297;SDS011;28892;55.640;37.532;2023-03-22T01:20:44;12.73;;;8.80;;
43297;SDS011;28892;55.640;37.532;2023-03-22T01:23:10;13.98;;;8.23;;
43297;SDS011;28892;55.640;37.532;2023-03-22T01:25:36;12.32;;;8.27;;
43297;SDS011;28892;55.640;37.532;2023-03-22T01:28:02;10.80;;;7.70;;
43297;SDS011;28892;55.640;37.532;2023-03-22T01:30:28;12.57;;;8.68;;
43297;SDS011;28892;55.640;37.532;2023-03-22T01:32:54;13.60;;;8.00;;
43297;SDS011;28892;55.640;37.532;2023-03-22T01:35:20;11.30;;;8.02;;
43297;SDS011;28892;55.640;37.532;2023-03-22T01:37:48;10.40;;;7.50;;
43297;SDS011;28892;55.640;37.532;2023-03-22T01:40:15;11.10;;;7.95;;
43297;SDS011;28892;55.640;37.532;2023-03-22T01:42:42;10.40;;;7.80;;
43297;SDS011;28892;55.640;37.532;2023-03-22T01:47:43;10.55;;;7.35;;
43297;SDS011;28892;55.640;37.532;2023-03-22T01:50:13;12.00;;;7.63;;
43297;SDS011;28892;55.640;37.532;2023-03-22T01:52:41;10.45;;;7.35;;
43297;SDS011;28892;55.640;37.532;2023-03-22T01:55:17;11.23;;;7.25;;
43297;SDS011;28892;55.640;37.532;2023-03-22T01:57:52;11.50;;;7.03;;
43297;SDS011;28892;55.640;37.532;2023-03-22T02:00:29;9.80;;;6.97;;
43297;SDS011;28892;55.640;37.532;2023-03-22T02:03:10;9.95;;;6.72;;
43297;SDS011;28892;55.640;37.532;2023-03-22T02:05:44;10.23;;;6.72;;
43297;SDS011;28892;55.640;37.532;2023-03-22T02:08:12;10.20;;;6.82;;
43297;SDS011;28892;55.640;37.532;2023-03-22T02:10:59;9.85;;;6.45;;
43297;SDS011;28892;55.640;37.532;2023-03-22T02:16:28;8.75;;;6.38;;
43297;SDS011;28892;55.640;37.532;2023-03-22T02:46:26;6.35;;;5.38;;
43297;SDS011;28892;55.640;37.532;2023-03-22T02:49:11;7.18;;;5.15;;
43297;SDS011;28892;55.640;37.532;2023-03-22T02:51:45;6.47;;;5.28;;
43297;SDS011;28892;55.640;37.532;2023-03-22T02:54:44;6.72;;;4.80;;
43297;SDS011;28892;55.640;37.532;2023-03-22T03:00:26;6.22;;;4.72;;
43297;SDS011;28892;55.640;37.532;2023-03-22T03:02:56;6.10;;;4.70;;
43297;SDS011;28892;55.640;37.532;2023-03-22T03:05:27;5.80;;;4.78;;
43297;SDS011;28892;55.640;37.532;2023-03-22T03:07:58;6.63;;;4.53;;
43297;SDS011;28892;55.640;37.532;2023-03-22T03:10:31;6.68;;;4.30;;
43297;SDS011;28892;55.640;37.532;2023-03-22T03:12:59;6.50;;;4.60;;
43297;SDS011;28892;55.640;37.532;2023-03-22T03:15:25;6.80;;;4.75;;
43297;SDS011;28892;55.640;37.532;2023-03-22T03:20:37;4.32;;;3.70;;
43297;SDS011;28892;55.640;37.532;2023-03-22T03:23:25;5.40;;;3.33;;
43297;SDS011;28892;55.640;37.532;2023-03-22T03:28:51;5.25;;;3.95;;
43297;SDS011;28892;55.640;37.532;2023-03-22T03:32:00;6.68;;;5.40;;
43297;SDS011;28892;55.640;37.532;2023-03-22T03:34:27;4.97;;;3.60;;
43297;SDS011;28892;55.640;37.532;2023-03-22T03:37:01;5.60;;;4.38;;
43297;SDS011;28892;55.640;37.532;2023-03-22T03:39:33;6.35;;;3.70;;
43297;SDS011;28892;55.640;37.532;2023-03-22T03:42:04;6.22;;;4.53;;
43297;SDS011;28892;55.640;37.532;2023-03-22T03:44:32;9.30;;;4.35;;
43297;SDS011;28892;55.640;37.532;2023-03-22T03:47:00;5.70;;;4.07;;
43297;SDS011;28892;55.640;37.532;2023-03-22T03:49:27;12.80;;;8.30;;
43297;SDS011;28892;55.640;37.532;2023-03-22T03:51:56;8.68;;;4.55;;
43297;SDS011;28892;55.640;37.532;2023-03-22T03:54:24;5.68;;;4.45;;
43297;SDS011;28892;55.640;37.532;2023-03-22T03:56:50;6.25;;;4.90;;
43297;SDS011;28892;55.640;37.532;2023-03-22T03:59:21;6.80;;;4.38;;
43297;SDS011;28892;55.640;37.532;2023-03-22T04:01:51;8.98;;;5.65;;
43297;SDS011;28892;55.640;37.532;2023-03-22T04:04:25;6.95;;;4.40;;
43297;SDS011;28892;55.640;37.532;2023-03-22T04:07:02;8.48;;;4.50;;
43297;SDS011;28892;55.640;37.532;2023-03-22T04:09:31;5.72;;;3.85;;
43297;SDS011;28892;55.640;37.532;2023-03-22T04:12:34;6.28;;;4.05;;
43297;SDS011;28892;55.640;37.532;2023-03-22T04:15:10;7.03;;;4.55;;
43297;SDS011;28892;55.640;37.532;2023-03-22T04:17:37;7.00;;;4.13;;
43297;SDS011;28892;55.640;37.532;2023-03-22T04:20:06;7.95;;;4.50;;
43297;SDS011;28892;55.640;37.532;2023-03-22T04:22:36;6.35;;;4.38;;
43297;SDS011;28892;55.640;37.532;2023-03-22T04:25:06;9.02;;;4.20;;
43297;SDS011;28892;55.640;37.532;2023-03-22T04:27:40;7.25;;;4.57;;
43297;SDS011;28892;55.640;37.532;2023-03-22T04:30:10;5.88;;;4.43;;
43297;SDS011;28892;55.640;37.532;2023-03-22T04:33:04;8.23;;;4.25;;
43297;SDS011;28892;55.640;37.532;2023-03-22T04:36:00;7.60;;;4.20;;
43297;SDS011;28892;55.640;37.532;2023-03-22T04:38:32;6.95;;;5.03;;
43297;SDS011;28892;55.640;37.532;2023-03-22T04:40:59;6.18;;;4.47;;
43297;SDS011;28892;55.640;37.532;2023-03-22T04:43:38;5.55;;;4.55;;
43297;SDS011;28892;55.640;37.532;2023-03-22T04:46:08;6.07;;;4.63;;
43297;SDS011;28892;55.640;37.532;2023-03-22T04:48:42;6.53;;;4.18;;
43297;SDS011;28892;55.640;37.532;2023-03-22T04:51:09;6.40;;;5.18;;
43297;SDS011;28892;55.640;37.532;2023-03-22T04:53:41;7.25;;;4.97;;
43297;SDS011;28892;55.640;37.532;2023-03-22T04:56:10;6.43;;;4.80;;
43297;SDS011;28892;55.640;37.532;2023-03-22T04:58:38;7.63;;;4.75;;
43297;SDS011;28892;55.640;37.532;2023-03-22T05:01:05;7.18;;;5.50;;
43297;SDS011;28892;55.640;37.532;2023-03-22T05:03:35;9.73;;;5.70;;
43297;SDS011;28892;55.640;37.532;2023-03-22T05:06:02;8.48;;;6.18;;
43297;SDS011;28892;55.640;37.532;2023-03-22T05:08:40;7.75;;;5.82;;
43297;SDS011;28892;55.640;37.532;2023-03-22T05:11:14;9.38;;;6.05;;
43297;SDS011;28892;55.640;37.532;2023-03-22T05:13:46;8.35;;;6.00;;
43297;SDS011;28892;55.640;37.532;2023-03-22T05:16:13;8.35;;;5.68;;
43297;SDS011;28892;55.640;37.532;2023-03-22T05:18:49;7.63;;;5.22;;
43297;SDS011;28892;55.640;37.532;2023-03-22T05:21:19;7.72;;;5.40;;
43297;SDS011;28892;55.640;37.532;2023-03-22T05:23:56;6.07;;;5.35;;
43297;SDS011;28892;55.640;37.532;2023-03-22T05:26:23;6.65;;;5.65;;
43297;SDS011;28892;55.640;37.532;2023-03-22T05:28:52;8.55;;;5.68;;
43297;SDS011;28892;55.640;37.532;2023-03-22T05:31:39;7.03;;;4.97;;
43297;SDS011;28892;55.640;37.532;2023-03-22T05:34:05;5.00;;;4.50;;
43297;SDS011;28892;55.640;37.532;2023-03-22T05:36:34;5.78;;;4.45;;
43297;SDS011;28892;55.640;37.532;2023-03-22T05:39:18;5.28;;;4.65;;
43297;SDS011;28892;55.640;37.532;2023-03-22T05:41:44;5.28;;;4.43;;
43297;SDS011;28892;55.640;37.532;2023-03-22T05:44:11;6.38;;;4.53;;
43297;SDS011;28892;55.640;37.532;2023-03-22T05:46:41;6.10;;;4.20;;
43297;SDS011;28892;55.640;37.532;2023-03-22T05:49:28;6.55;;;4.72;;
43297;SDS011;28892;55.640;37.532;2023-03-22T05:51:55;5.32;;;4.28;;
43297;SDS011;28892;55.640;37.532;2023-03-22T05:54:26;5.10;;;4.60;;
43297;SDS011;28892;55.640;37.532;2023-03-22T05:56:52;6.60;;;4.55;;
43297;SDS011;28892;55.640;37.532;2023-03-22T05:59:21;5.47;;;4.68;;
43297;SDS011;28892;55.640;37.532;2023-03-22T06:01:46;6.32;;;4.82;;
43297;SDS011;28892;55.640;37.532;2023-03-22T06:04:19;6.60;;;5.68;;
43297;SDS011;28892;55.640;37.532;2023-03-22T06:07:20;5.70;;;5.15;;
43297;SDS011;28892;55.640;37.532;2023-03-22T06:09:53;7.22;;;5.47;;
43297;SDS011;28892;55.640;37.532;2023-03-22T06:12:24;6.60;;;5.65;;
43297;SDS011;28892;55.640;37.532;2023-03-22T06:15:00;6.63;;;5.50;;
43297;SDS011;28892;55.640;37.532;2023-03-22T06:17:49;5.05;;;4.55;;
43297;SDS011;28892;55.640;37.532;2023-03-22T06:20:20;5.82;;;5.18;;
43297;SDS011;28892;55.640;37.532;2023-03-22T06:22:52;4.72;;;4.20;;
43297;SDS011;28892;55.640;37.532;2023-03-22T06:25:18;5.20;;;4.50;;
43297;SDS011;28892;55.640;37.532;2023-03-22T06:27:46;5.25;;;4.47;;
43297;SDS011;28892;55.640;37.532;2023-03-22T06:30:12;5.65;;;5.05;;
43297;SDS011;28892;55.640;37.532;2023-03-22T06:32:58;5.53;;;5.00;;
43297;SDS011;28892;55.640;37.532;2023-03-22T06:35:30;4.07;;;3.67;;
43297;SDS011;28892;55.640;37.532;2023-03-22T06:38:00;4.90;;;4.50;;
43297;SDS011;28892;55.640;37.532;2023-03-22T06:40:26;5.00;;;4.53;;
43297;SDS011;28892;55.640;37.532;2023-03-22T06:42:52;4.10;;;3.70;;
43297;SDS011;28892;55.640;37.532;2023-03-22T06:45:20;7.05;;;4.43;;
43297;SDS011;28892;55.640;37.532;2023-03-22T06:47:46;4.50;;;4.03;;
43297;SDS011;28892;55.640;37.532;2023-03-22T06:50:30;5.22;;;4.18;;
43297;SDS011;28892;55.640;37.532;2023-03-22T06:53:04;5.30;;;4.80;;
43297;SDS011;28892;55.640;37.532;2023-03-22T06:55:30;6.40;;;4.88;;
43297;SDS011;28892;55.640;37.532;2023-03-22T06:58:08;4.35;;;3.95;;
43297;SDS011;28892;55.640;37.532;2023-03-22T07:00:34;4.57;;;3.70;;
43297;SDS011;28892;55.640;37.532;2023-03-22T07:03:01;3.70;;;3.40;;
43297;SDS011;28892;55.640;37.532;2023-03-22T07:05:35;4.40;;;4.00;;
43297;SDS011;28892;55.640;37.532;2023-03-22T07:08:00;4.88;;;4.47;;
43297;SDS011;28892;55.640;37.532;2023-03-22T07:10:26;4.63;;;3.50;;
43297;SDS011;28892;55.640;37.532;2023-03-22T07:12:52;4.00;;;3.60;;
43297;SDS011;28892;55.640;37.532;2023-03-22T07:15:18;4.10;;;3.70;;
43297;SDS011;28892;55.640;37.532;2023-03-22T07:18:14;5.07;;;4.03;;
43297;SDS011;28892;55.640;37.532;2023-03-22T07:20:40;6.65;;;4.25;;
43297;SDS011;28892;55.640;37.532;2023-03-22T07:23:07;4.10;;;3.67;;
43297;SDS011;28892;55.640;37.532;2023-03-22T07:25:46;5.55;;;4.13;;
43297;SDS011;28892;55.640;37.532;2023-03-22T07:28:20;3.80;;;3.50;;
43297;SDS011;28892;55.640;37.532;2023-03-22T07:30:46;3.90;;;3.60;;
43297;SDS011;28892;55.640;37.532;2023-03-22T07:33:14;4.03;;;3.50;;
43297;SDS011;28892;55.640;37.532;2023-03-22T07:35:41;4.85;;;3.63;;
43297;SDS011;28892;55.640;37.532;2023-03-22T07:38:07;5.18;;;4.28;;
43297;SDS011;28892;55.640;37.532;2023-03-22T07:40:33;5.43;;;3.70;;
43297;SDS011;28892;55.640;37.532;2023-03-22T07:42:58;4.68;;;4.18;;
43297;SDS011;28892;55.640;37.532;2023-03-22T07:45:40;5.78;;;4.35;;
43297;SDS011;28892;55.640;37.532;2023-03-22T07:48:38;6.05;;;4.70;;
43297;SDS011;28892;55.640;37.532;2023-03-22T07:51:23;7.38;;;4.60;;
43297;SDS011;28892;55.640;37.532;2023-03-22T07:53:52;7.38;;;3.97;;
43297;SDS011;28892;55.640;37.532;2023-03-22T07:56:21;6.93;;;5.07;;
43297;SDS011;28892;55.640;37.532;2023-03-22T07:58:47;4.28;;;3.17;;
43297;SDS011;28892;55.640;37.532;2023-03-22T08:01:12;4.10;;;3.70;;
43297;SDS011;28892;55.640;37.532;2023-03-22T08:03:50;12.23;;;7.47;;
43297;SDS011;28892;55.640;37.532;2023-03-22T08:06:36;9.80;;;4.95;;
43297;SDS011;28892;55.640;37.532;2023-03-22T08:09:03;7.28;;;3.65;;
43297;SDS011;28892;55.640;37.532;2023-03-22T08:11:29;4.85;;;3.97;;
43297;SDS011;28892;55.640;37.532;2023-03-22T08:13:56;3.90;;;3.58;;
43297;SDS011;28892;55.640;37.532;2023-03-22T08:16:26;5.30;;;3.40;;
43297;SDS011;28892;55.640;37.532;2023-03-22T08:18:52;4.93;;;4.43;;
43297;SDS011;28892;55.640;37.532;2023-03-22T08:21:19;4.55;;;3.78;;
43297;SDS011;28892;55.640;37.532;2023-03-22T08:24:05;4.07;;;3.67;;
43297;SDS011;28892;55.640;37.532;2023-03-22T08:26:50;2.83;;;2.53;;
43297;SDS011;28892;55.640;37.532;2023-03-22T08:29:28;2.83;;;2.53;;
43297;SDS011;28892;55.640;37.532;2023-03-22T08:31:55;3.80;;;3.45;;
43297;SDS011;28892;55.640;37.532;2023-03-22T08:34:27;3.72;;;3.35;;
43297;SDS011;28892;55.640;37.532;2023-03-22T08:36:55;4.53;;;3.53;;
43297;SDS011;28892;55.640;37.532;2023-03-22T08:39:21;9.50;;;7.28;;
43297;SDS011;28892;55.640;37.532;2023-03-22T08:42:02;6.68;;;5.38;;
43297;SDS011;28892;55.640;37.532;2023-03-22T08:44:29;5.75;;;4.40;;
43297;SDS011;28892;55.640;37.532;2023-03-22T08:46:55;6.00;;;4.13;;
43297;SDS011;28892;55.640;37.532;2023-03-22T08:49:21;4.45;;;3.80;;
43297;SDS011;28892;55.640;37.532;2023-03-22T08:51:54;5.47;;;4.32;;
43297;SDS011;28892;55.640;37.532;2023-03-22T08:54:50;6.40;;;5.25;;
43297;SDS011;28892;55.640;37.532;2023-03-22T08:57:36;3.58;;;3.28;;
43297;SDS011;28892;55.640;37.532;2023-03-22T09:00:25;4.63;;;3.90;;
43297;SDS011;28892;55.640;37.532;2023-03-22T09:03:03;6.45;;;4.75;;
43297;SDS011;28892;55.640;37.532;2023-03-22T09:05:29;5.13;;;4.10;;
43297;SDS011;28892;55.640;37.532;2023-03-22T09:07:55;4.85;;;3.10;;
43297;SDS011;28892;55.640;37.532;2023-03-22T09:10:28;4.45;;;3.28;;
43297;SDS011;28892;55.640;37.532;2023-03-22T09:12:54;4.55;;;2.90;;
43297;SDS011;28892;55.640;37.532;2023-03-22T09:15:21;3.30;;;2.55;;
43297;SDS011;28892;55.640;37.532;2023-03-22T09:18:01;4.22;;;2.80;;
43297;SDS011;28892;55.640;37.532;2023-03-22T09:20:27;3.50;;;3.20;;
43297;SDS011;28892;55.640;37.532;2023-03-22T09:22:53;4.00;;;3.63;;
43297;SDS011;28892;55.640;37.532;2023-03-22T09:25:20;4.68;;;3.72;;
43297;SDS011;28892;55.640;37.532;2023-03-22T09:27:47;3.78;;;3.42;;
43297;SDS011;28892;55.640;37.532;2023-03-22T09:30:14;4.30;;;3.15;;
43297;SDS011;28892;55.640;37.532;2023-03-22T09:32:40;3.08;;;2.78;;
43297;SDS011;28892;55.640;37.532;2023-03-22T09:35:08;4.32;;;3.38;;
43297;SDS011;28892;55.640;37.532;2023-03-22T09:37:50;3.88;;;3.42;;
43297;SDS011;28892;55.640;37.532;2023-03-22T09:40:17;4.38;;;3.78;;
43297;SDS011;28892;55.640;37.532;2023-03-22T09:42:49;6.03;;;3.60;;
43297;SDS011;28892;55.640;37.532;2023-03-22T09:45:19;4.00;;;3.60;;
43297;SDS011;28892;55.640;37.532;2023-03-22T09:47:52;4.13;;;3.60;;
43297;SDS011;28892;55.640;37.532;2023-03-22T09:50:21;4.32;;;3.90;;
43297;SDS011;28892;55.640;37.532;2023-03-22T09:52:49;5.50;;;3.72;;
43297;SDS011;28892;55.640;37.532;2023-03-22T09:55:20;4.05;;;3.65;;
43297;SDS011;28892;55.640;37.532;2023-03-22T10:00:56;4.32;;;3.70;;
43297;SDS011;28892;55.640;37.532;2023-03-22T10:06:23;4.40;;;3.70;;
43297;SDS011;28892;55.640;37.532;2023-03-22T10:09:11;6.30;;;3.85;;
43297;SDS011;28892;55.640;37.532;2023-03-22T10:17:41;3.22;;;2.85;;
43297;SDS011;28892;55.640;37.532;2023-03-22T10:20:23;3.15;;;2.75;;
43297;SDS011;28892;55.640;37.532;2023-03-22T10:23:13;2.63;;;2.42;;
43297;SDS011;28892;55.640;37.532;2023-03-22T10:25:44;3.50;;;2.83;;
43297;SDS011;28892;55.640;37.532;2023-03-22T10:28:19;3.90;;;2.90;;
43297;SDS011;28892;55.640;37.532;2023-03-22T10:30:52;6.07;;;2.85;;
43297;SDS011;28892;55.640;37.532;2023-03-22T10:36:14;6.60;;;3.08;;
43297;SDS011;28892;55.640;37.532;2023-03-22T10:38:44;3.30;;;3.00;;
43297;SDS011;28892;55.640;37.532;2023-03-22T10:41:15;3.20;;;2.90;;
43297;SDS011;28892;55.640;37.532;2023-03-22T10:43:43;3.47;;;2.63;;
43297;SDS011;28892;55.640;37.532;2023-03-22T10:46:17;4.77;;;3.50;;
43297;SDS011;28892;55.640;37.532;2023-03-22T10:48:46;4.18;;;3.58;;
43297;SDS011;28892;55.640;37.532;2023-03-22T10:51:34;3.72;;;3.33;;
43297;SDS011;28892;55.640;37.532;2023-03-22T10:54:08;5.43;;;2.40;;
43297;SDS011;28892;55.640;37.532;2023-03-22T10:56:37;3.08;;;2.45;;
43297;SDS011;28892;55.640;37.532;2023-03-22T10:59:03;2.50;;;2.30;;
43297;SDS011;28892;55.640;37.532;2023-03-22T11:01:30;3.67;;;2.30;;
43297;SDS011;28892;55.640;37.532;2023-03-22T11:03:59;2.40;;;2.20;;
43297;SDS011;28892;55.640;37.532;2023-03-22T11:06:33;2.90;;;2.20;;
43297;SDS011;28892;55.640;37.532;2023-03-22T11:11:52;3.08;;;2.30;;
43297;SDS011;28892;55.640;37.532;2023-03-22T11:16:58;3.47;;;2.88;;
43297;SDS011;28892;55.640;37.532;2023-03-22T11:19:35;4.28;;;2.65;;
43297;SDS011;28892;55.640;37.532;2023-03-22T11:22:07;4.63;;;3.72;;
43297;SDS011;28892;55.640;37.532;2023-03-22T11:24:48;4.82;;;2.80;;
43297;SDS011;28892;55.640;37.532;2023-03-22T11:27:18;3.45;;;2.40;;
43297;SDS011;28892;55.640;37.532;2023-03-22T11:29:48;2.90;;;2.60;;
43297;SDS011;28892;55.640;37.532;2023-03-22T11:32:36;2.65;;;2.13;;
43297;SDS011;28892;55.640;37.532;2023-03-22T11:37:54;2.30;;;2.10;;
43297;SDS011;28892;55.640;37.532;2023-03-22T11:40:26;2.33;;;2.13;;
43297;SDS011;28892;55.640;37.532;2023-03-22T11:42:55;3.28;;;2.13;;
43297;SDS011;28892;55.640;37.532;2023-03-22T11:45:35;2.50;;;2.00;;
43297;SDS011;28892;55.640;37.532;2023-03-22T11:48:06;2.55;;;2.30;;
43297;SDS011;28892;55.640;37.532;2023-03-22T11:50:37;2.50;;;2.30;;
43297;SDS011;28892;55.640;37.532;2023-03-22T11:53:05;3.13;;;2.65;;
43297;SDS011;28892;55.640;37.532;2023-03-22T11:55:36;3.80;;;2.30;;
43297;SDS011;28892;55.640;37.532;2023-03-22T11:58:03;2.92;;;2.63;;
43297;SDS011;28892;55.640;37.532;2023-03-22T12:00:30;3.78;;;2.20;;
43297;SDS011;28892;55.640;37.532;2023-03-22T12:03:05;2.30;;;2.05;;
43297;SDS011;28892;55.640;37.532;2023-03-22T12:05:39;1.60;;;1.50;;
43297;SDS011;28892;55.640;37.532;2023-03-22T12:08:26;4.05;;;1.80;;
43297;SDS011;28892;55.640;37.532;2023-03-22T12:11:05;2.17;;;1.98;;
43297;SDS011;28892;55.640;37.532;2023-03-22T12:13:53;2.10;;;1.90;;
43297;SDS011;28892;55.640;37.532;2023-03-22T12:16:29;2.47;;;2.00;;
43297;SDS011;28892;55.640;37.532;2023-03-22T12:22:00;2.10;;;1.90;;
43297;SDS011;28892;55.640;37.532;2023-03-22T12:24:30;2.42;;;1.95;;
43297;SDS011;28892;55.640;37.532;2023-03-22T12:27:00;2.75;;;2.45;;
43297;SDS011;28892;55.640;37.532;2023-03-22T12:29:37;2.60;;;2.00;;
43297;SDS011;28892;55.640;37.532;2023-03-22T12:32:14;3.67;;;2.30;;
43297;SDS011;28892;55.640;37.532;2023-03-22T12:34:51;2.35;;;2.08;;
43297;SDS011;28892;55.640;37.532;2023-03-22T12:37:21;4.13;;;2.28;;
43297;SDS011;28892;55.640;37.532;2023-03-22T12:42:25;2.30;;;2.10;;
43297;SDS011;28892;55.640;37.532;2023-03-22T12:45:02;2.15;;;1.90;;
43297;SDS011;28892;55.640;37.532;2023-03-22T12:47:43;2.25;;;2.05;;
43297;SDS011;28892;55.640;37.532;2023-03-22T12:50:28;1.77;;;1.67;;
43297;SDS011;28892;55.640;37.532;2023-03-22T12:52:59;2.58;;;1.70;;
43297;SDS011;28892;55.640;37.532;2023-03-22T12:55:27;3.05;;;2.65;;
43297;SDS011;28892;55.640;37.532;2023-03-22T12:58:06;2.63;;;1.73;;
43297;SDS011;28892;55.640;37.532;2023-03-22T13:00:41;3.22;;;1.90;;
43297;SDS011;28892;55.640;37.532;2023-03-22T13:05:40;2.90;;;2.17;;
43297;SDS011;28892;55.640;37.532;2023-03-22T13:08:06;2.22;;;2.03;;
43297;SDS011;28892;55.640;37.532;2023-03-22T13:18:30;2.63;;;2.20;;
43297;SDS011;28892;55.640;37.532;2023-03-22T13:21:41;2.30;;;2.10;;
43297;SDS011;28892;55.640;37.532;2023-03-22T13:26:36;3.92;;;2.25;;
43297;SDS011;28892;55.640;37.532;2023-03-22T13:29:13;3.20;;;2.35;;
43297;SDS011;28892;55.640;37.532;2023-03-22T13:32:03;3.20;;;2.42;;
43297;SDS011;28892;55.640;37.532;2023-03-22T13:37:21;3.10;;;2.17;;
43297;SDS011;28892;55.640;37.532;2023-03-22T13:43:12;4.38;;;2.30;;
43297;SDS011;28892;55.640;37.532;2023-03-22T13:51:09;1.90;;;1.70;;
43297;SDS011;28892;55.640;37.532;2023-03-22T13:53:39;2.60;;;2.10;;
43297;SDS011;28892;55.640;37.532;2023-03-22T13:56:09;2.80;;;2.28;;
43297;SDS011;28892;55.640;37.532;2023-03-22T14:01:15;4.53;;;2.63;;
43297;SDS011;28892;55.640;37.532;2023-03-22T14:03:48;1.98;;;1.73;;
43297;SDS011;28892;55.640;37.532;2023-03-22T14:06:19;3.72;;;1.83;;
43297;SDS011;28892;55.640;37.532;2023-03-22T14:08:50;2.83;;;1.90;;
43297;SDS011;28892;55.640;37.532;2023-03-22T14:11:22;4.23;;;2.20;;
43297;SDS011;28892;55.640;37.532;2023-03-22T14:13:58;3.67;;;2.00;;
43297;SDS011;28892;55.640;37.532;2023-03-22T14:19:00;3.72;;;1.80;;
43297;SDS011;28892;55.640;37.532;2023-03-22T14:21:32;2.95;;;1.92;;
43297;SDS011;28892;55.640;37.532;2023-03-22T14:24:01;2.08;;;1.77;;
43297;SDS011;28892;55.640;37.532;2023-03-22T14:26:33;2.05;;;1.85;;
43297;SDS011;28892;55.640;37.532;2023-03-22T14:29:23;1.90;;;1.70;;
43297;SDS011;28892;55.640;37.532;2023-03-22T14:31:58;2.53;;;2.05;;
43297;SDS011;28892;55.640;37.532;2023-03-22T14:34:25;3.03;;;2.33;;
43297;SDS011;28892;55.640;37.532;2023-03-22T14:36:56;4.32;;;2.00;;
43297;SDS011;28892;55.640;37.532;2023-03-22T14:39:30;3.35;;;2.03;;
43297;SDS011;28892;55.640;37.532;2023-03-22T14:44:25;2.72;;;2.10;;
43297;SDS011;28892;55.640;37.532;2023-03-22T14:46:59;2.63;;;1.45;;
43297;SDS011;28892;55.640;37.532;2023-03-22T14:49:39;3.35;;;1.90;;
43297;SDS011;28892;55.640;37.532;2023-03-22T14:52:11;2.72;;;1.80;;
43297;SDS011;28892;55.640;37.532;2023-03-22T14:54:43;3.03;;;2.13;;
43297;SDS011;28892;55.640;37.532;2023-03-22T14:57:17;2.88;;;2.00;;
43297;SDS011;28892;55.640;37.532;2023-03-22T14:59:44;3.10;;;1.90;;
43297;SDS011;28892;55.640;37.532;2023-03-22T15:05:00;2.90;;;2.33;;
43297;SDS011;28892;55.640;37.532;2023-03-22T15:07:31;2.30;;;2.10;;
43297;SDS011;28892;55.640;37.532;2023-03-22T15:12:48;6.60;;;2.50;;
43297;SDS011;28892;55.640;37.532;2023-03-22T15:15:16;3.70;;;2.40;;
43297;SDS011;28892;55.640;37.532;2023-03-22T15:17:44;3.08;;;2.58;;
43297;SDS011;28892;55.640;37.532;2023-03-22T15:20:16;4.53;;;2.85;;
43297;SDS011;28892;55.640;37.532;2023-03-22T15:22:50;3.50;;;2.50;;
43297;SDS011;28892;55.640;37.532;2023-03-22T15:25:17;3.63;;;2.70;;
43297;SDS011;28892;55.640;37.532;2023-03-22T15:27:42;3.35;;;2.53;;
43297;SDS011;28892;55.640;37.532;2023-03-22T15:30:09;6.47;;;2.50;;
43297;SDS011;28892;55.640;37.532;2023-03-22T15:32:40;3.65;;;2.40;;
43297;SDS011;28892;55.640;37.532;2023-03-22T15:35:07;4.05;;;2.15;;
43297;SDS011;28892;55.640;37.532;2023-03-22T15:37:38;3.20;;;2.30;;
43297;SDS011;28892;55.640;37.532;2023-03-22T15:40:04;6.68;;;2.53;;
43297;SDS011;28892;55.640;37.532;2023-03-22T15:42:34;4.95;;;2.65;;
43297;SDS011;28892;55.640;37.532;2023-03-22T15:45:20;5.63;;;2.78;;
43297;SDS011;28892;55.640;37.532;2023-03-22T15:48:00;4.43;;;2.75;;
43297;SDS011;28892;55.640;37.532;2023-03-22T15:50:29;5.38;;;2.75;;
43297;SDS011;28892;55.640;37.532;2023-03-22T15:52:56;6.13;;;2.97;;
43297;SDS011;28892;55.640;37.532;2023-03-22T15:55:31;7.70;;;3.78;;
43297;SDS011;28892;55.640;37.532;2023-03-22T15:58:01;4.18;;;3.15;;
43297;SDS011;28892;55.640;37.532;2023-03-22T16:00:29;5.20;;;3.50;;
43297;SDS011;28892;55.640;37.532;2023-03-22T16:05:33;4.88;;;2.63;;
43297;SDS011;28892;55.640;37.532;2023-03-22T16:08:00;4.15;;;3.15;;
43297;SDS011;28892;55.640;37.532;2023-03-22T16:10:29;4.65;;;2.45;;
43297;SDS011;28892;55.640;37.532;2023-03-22T16:12:57;6.13;;;3.03;;
43297;SDS011;28892;55.640;37.532;2023-03-22T16:15:24;5.05;;;2.50;;
43297;SDS011;28892;55.640;37.532;2023-03-22T16:17:52;2.33;;;2.00;;
43297;SDS011;28892;55.640;37.532;2023-03-22T16:20:21;4.18;;;2.80;;
43297;SDS011;28892;55.640;37.532;2023-03-22T16:22:50;4.22;;;2.50;;
43297;SDS011;28892;55.640;37.532;2023-03-22T16:25:21;4.57;;;2.30;;
43297;SDS011;28892;55.640;37.532;2023-03-22T16:27:58;3.28;;;2.53;;
43297;SDS011;28892;55.640;37.532;2023-03-22T16:30:24;4.70;;;2.90;;
43297;SDS011;28892;55.640;37.532;2023-03-22T16:32:50;3.72;;;2.28;;
43297;SDS011;28892;55.640;37.532;2023-03-22T16:35:22;2.75;;;2.53;;
43297;SDS011;28892;55.640;37.532;2023-03-22T16:37:52;4.45;;;2.85;;
43297;SDS011;28892;55.640;37.532;2023-03-22T16:40:19;3.92;;;2.42;;
43297;SDS011;28892;55.640;37.532;2023-03-22T16:42:48;4.95;;;3.17;;
43297;SDS011;28892;55.640;37.532;2023-03-22T16:45:15;5.60;;;3.10;;
43297;SDS011;28892;55.640;37.532;2023-03-22T16:47:47;4.65;;;3.10;;
43297;SDS011;28892;55.640;37.532;2023-03-22T16:50:14;4.50;;;3.10;;
43297;SDS011;28892;55.640;37.532;2023-03-22T16:52:40;4.00;;;3.05;;